createdAt,value
2022-12-15T00:00:01.715Z,0.00
2022-12-15T00:01:01.799Z,0.00
2022-12-15T00:02:01.738Z,0.00
2022-12-15T00:03:01.853Z,0.00
2022-12-15T00:04:01.771Z,0.00
2022-12-15T00:05:01.722Z,0.00
2022-12-15T00:06:01.705Z,0.00
2022-12-15T00:07:02.740Z,0.00
2022-12-15T00:08:01.752Z,0.00
2022-12-15T00:09:01.666Z,0.00
2022-12-15T00:10:02.231Z,0.00
2022-12-15T00:11:01.689Z,0.00
2022-12-15T00:12:01.659Z,0.00
2022-12-15T00:13:01.654Z,0.00
2022-12-15T00:14:01.634Z,0.00
2022-12-15T00:15:01.610Z,0.00
2022-12-15T00:16:01.750Z,0.00
2022-12-15T00:17:01.739Z,0.00
2022-12-15T00:18:01.625Z,0.00
2022-12-15T00:19:01.603Z,0.00
2022-12-15T00:20:01.614Z,0.00
2022-12-15T00:21:01.650Z,0.00
2022-12-15T00:22:01.640Z,0.00
2022-12-15T00:23:01.597Z,0.00
2022-12-15T00:24:01.642Z,0.00
2022-12-15T00:25:01.621Z,0.00
2022-12-15T00:26:01.588Z,0.00
2022-12-15T00:27:01.588Z,0.00
2022-12-15T00:28:01.600Z,0.00
2022-12-15T00:29:01.585Z,0.00
2022-12-15T00:30:01.590Z,0.00
2022-12-15T00:31:02.676Z,0.00
2022-12-15T00:32:02.611Z,0.00
2022-12-15T00:33:01.594Z,0.00
2022-12-15T00:34:01.584Z,0.00
2022-12-15T00:35:01.516Z,0.00
2022-12-15T00:36:01.584Z,0.00
2022-12-15T00:37:01.583Z,0.00
2022-12-15T00:38:01.540Z,0.00
2022-12-15T00:39:03.965Z,0.00
2022-12-15T00:40:02.526Z,0.00
2022-12-15T00:41:01.533Z,0.00
2022-12-15T00:42:01.558Z,0.00
2022-12-15T00:43:01.499Z,0.00
2022-12-15T00:44:01.540Z,0.00
2022-12-15T00:45:01.503Z,0.00
2022-12-15T00:46:01.551Z,0.00
2022-12-15T00:47:01.564Z,0.00
2022-12-15T00:48:01.494Z,0.00
2022-12-15T00:49:01.480Z,0.00
2022-12-15T00:50:01.477Z,0.00
2022-12-15T00:51:01.470Z,0.00
2022-12-15T00:52:01.470Z,0.00
2022-12-15T00:53:01.447Z,0.00
2022-12-15T00:54:01.445Z,0.00
2022-12-15T00:55:01.457Z,0.00
2022-12-15T00:56:01.439Z,0.00
2022-12-15T00:57:01.447Z,0.00
2022-12-15T00:58:01.436Z,0.00
2022-12-15T00:59:01.461Z,0.00
2022-12-15T01:00:01.403Z,0.00
2022-12-15T01:01:01.440Z,0.00
2022-12-15T01:02:01.535Z,0.00
2022-12-15T01:03:01.605Z,0.00
2022-12-15T01:04:01.455Z,0.00
2022-12-15T01:05:01.413Z,0.00
2022-12-15T01:06:01.422Z,0.00
2022-12-15T01:07:01.421Z,0.00
2022-12-15T01:08:01.366Z,0.00
2022-12-15T01:09:01.457Z,0.00
2022-12-15T01:10:01.381Z,0.00
2022-12-15T01:11:01.379Z,0.00
2022-12-15T01:12:01.372Z,0.00
2022-12-15T01:13:01.343Z,0.00
2022-12-15T01:14:01.337Z,0.00
2022-12-15T01:15:01.359Z,0.00
2022-12-15T01:16:01.564Z,0.00
2022-12-15T01:17:01.355Z,0.00
2022-12-15T01:18:01.304Z,0.00
2022-12-15T01:19:01.332Z,0.00
2022-12-15T01:20:01.375Z,0.00
2022-12-15T01:21:01.345Z,0.00
2022-12-15T01:22:01.308Z,0.00
2022-12-15T01:23:01.329Z,0.00
2022-12-15T01:24:01.303Z,0.00
2022-12-15T01:25:09.480Z,0.00
2022-12-15T01:26:01.274Z,0.00
2022-12-15T01:27:01.305Z,0.00
2022-12-15T01:28:01.253Z,0.00
2022-12-15T01:29:01.233Z,0.00
2022-12-15T01:30:01.228Z,0.00
2022-12-15T01:31:01.269Z,0.00
2022-12-15T01:32:01.265Z,0.00
2022-12-15T01:33:01.259Z,0.00
2022-12-15T01:34:01.239Z,0.00
2022-12-15T01:35:01.224Z,0.00
2022-12-15T01:36:01.232Z,0.00
2022-12-15T01:37:01.245Z,0.00
2022-12-15T01:38:01.237Z,0.00
2022-12-15T01:39:01.180Z,0.00
2022-12-15T01:40:01.206Z,0.00
2022-12-15T01:41:01.216Z,0.00
2022-12-15T01:42:01.174Z,0.00
2022-12-15T01:43:01.161Z,0.00
2022-12-15T01:44:01.196Z,0.00
2022-12-15T01:45:01.198Z,0.00
2022-12-15T01:46:01.159Z,0.00
2022-12-15T01:47:01.261Z,0.00
2022-12-15T01:48:01.174Z,0.00
2022-12-15T01:49:01.145Z,0.00
2022-12-15T01:50:01.164Z,0.00
2022-12-15T01:51:01.093Z,0.00
2022-12-15T01:52:01.218Z,0.00
2022-12-15T01:53:01.104Z,0.00
2022-12-15T01:54:01.179Z,0.00
2022-12-15T01:55:01.083Z,0.00
2022-12-15T01:56:01.097Z,0.00
2022-12-15T01:57:01.092Z,0.00
2022-12-15T01:58:01.131Z,0.00
2022-12-15T01:59:01.090Z,0.00
2022-12-15T02:00:01.057Z,0.00
2022-12-15T02:01:01.124Z,0.00
2022-12-15T02:02:01.192Z,0.00
2022-12-15T02:03:01.251Z,0.00
2022-12-15T02:04:01.073Z,0.00
2022-12-15T02:05:01.071Z,0.00
2022-12-15T02:06:01.049Z,0.00
2022-12-15T02:07:01.058Z,0.00
2022-12-15T02:08:01.034Z,0.00
2022-12-15T02:09:01.060Z,0.00
2022-12-15T02:10:01.064Z,0.00
2022-12-15T02:11:01.020Z,0.00
2022-12-15T02:12:01.039Z,0.00
2022-12-15T02:13:01.011Z,0.00
2022-12-15T02:14:01.045Z,0.00
2022-12-15T02:15:01.022Z,0.00
2022-12-15T02:16:01.061Z,0.00
2022-12-15T02:17:01.025Z,0.00
2022-12-15T02:18:01.006Z,0.00
2022-12-15T02:19:01.037Z,0.00
2022-12-15T02:20:01.024Z,0.00
2022-12-15T02:21:00.951Z,0.00
2022-12-15T02:22:00.982Z,0.00
2022-12-15T02:23:00.954Z,0.00
2022-12-15T02:24:00.971Z,0.00
2022-12-15T02:25:00.994Z,0.00
2022-12-15T02:26:00.950Z,0.00
2022-12-15T02:27:00.932Z,0.00
2022-12-15T02:28:00.914Z,0.00
2022-12-15T02:29:00.920Z,0.00
2022-12-15T02:30:00.898Z,0.00
2022-12-15T02:31:00.934Z,0.00
2022-12-15T02:32:00.994Z,0.00
2022-12-15T02:33:00.870Z,0.00
2022-12-15T02:34:00.917Z,0.00
2022-12-15T02:35:00.945Z,0.00
2022-12-15T02:36:00.896Z,0.00
2022-12-15T02:37:00.900Z,0.00
2022-12-15T02:38:00.858Z,0.00
2022-12-15T02:39:00.924Z,0.00
2022-12-15T02:40:00.881Z,0.00
2022-12-15T02:41:00.860Z,0.00
2022-12-15T02:42:00.842Z,0.00
2022-12-15T02:43:00.866Z,0.00
2022-12-15T02:44:00.834Z,0.00
2022-12-15T02:45:00.869Z,0.00
2022-12-15T02:46:00.889Z,0.00
2022-12-15T02:47:00.819Z,0.00
2022-12-15T02:48:00.842Z,0.00
2022-12-15T02:49:00.838Z,0.00
2022-12-15T02:50:00.844Z,0.00
2022-12-15T02:51:00.882Z,0.00
2022-12-15T02:52:00.835Z,0.00
2022-12-15T02:53:00.814Z,0.00
2022-12-15T02:54:00.910Z,0.00
2022-12-15T02:55:00.808Z,0.00
2022-12-15T02:56:00.762Z,0.00
2022-12-15T02:57:00.787Z,0.00
2022-12-15T02:58:00.771Z,0.00
2022-12-15T02:59:00.777Z,0.00
2022-12-15T03:00:00.787Z,0.00
2022-12-15T03:01:00.823Z,0.00
2022-12-15T03:02:00.930Z,0.00
2022-12-15T03:03:00.966Z,0.00
2022-12-15T03:04:00.745Z,0.00
2022-12-15T03:05:00.717Z,0.00
2022-12-15T03:06:00.756Z,0.00
2022-12-15T03:07:01.552Z,0.00
2022-12-15T03:08:01.724Z,0.00
2022-12-15T03:09:00.711Z,0.00
2022-12-15T03:10:00.731Z,0.00
2022-12-15T03:11:00.726Z,0.00
2022-12-15T03:12:00.734Z,0.00
2022-12-15T03:13:00.690Z,0.00
2022-12-15T03:14:00.667Z,0.00
2022-12-15T03:15:00.689Z,0.00
2022-12-15T03:16:00.725Z,0.00
2022-12-15T03:17:00.741Z,0.00
2022-12-15T03:18:00.678Z,0.00
2022-12-15T03:19:00.674Z,0.00
2022-12-15T03:20:00.670Z,0.00
2022-12-15T03:21:00.631Z,0.00
2022-12-15T03:22:00.647Z,0.00
2022-12-15T03:23:00.668Z,0.00
2022-12-15T03:24:00.654Z,0.00
2022-12-15T03:25:00.647Z,0.00
2022-12-15T03:26:00.619Z,0.00
2022-12-15T03:27:00.594Z,0.00
2022-12-15T03:28:00.716Z,0.00
2022-12-15T03:29:00.588Z,0.00
2022-12-15T03:30:00.607Z,0.00
2022-12-15T03:31:00.591Z,0.00
2022-12-15T03:32:00.636Z,0.00
2022-12-15T03:33:00.713Z,0.00
2022-12-15T03:34:00.586Z,0.00
2022-12-15T03:35:00.560Z,0.00
2022-12-15T03:36:00.535Z,0.00
2022-12-15T03:37:00.560Z,0.00
2022-12-15T03:38:00.537Z,0.00
2022-12-15T03:39:00.647Z,0.00
2022-12-15T03:40:00.587Z,0.00
2022-12-15T03:41:00.497Z,0.00
2022-12-15T03:42:00.538Z,0.00
2022-12-15T03:43:00.519Z,0.00
2022-12-15T03:44:00.630Z,0.00
2022-12-15T03:45:00.493Z,0.00
2022-12-15T03:46:00.600Z,0.00
2022-12-15T03:47:03.563Z,0.00
2022-12-15T03:48:01.533Z,0.00
2022-12-15T03:49:00.493Z,0.00
2022-12-15T03:50:00.638Z,0.00
2022-12-15T03:51:00.514Z,0.00
2022-12-15T03:52:00.480Z,0.00
2022-12-15T03:53:00.467Z,0.00
2022-12-15T03:54:00.496Z,0.00
2022-12-15T03:55:00.476Z,0.00
2022-12-15T03:56:00.442Z,0.00
2022-12-15T03:57:00.457Z,0.00
2022-12-15T03:58:00.476Z,0.00
2022-12-15T03:59:00.457Z,0.00
2022-12-15T04:00:00.453Z,0.00
2022-12-15T04:01:00.483Z,0.00
2022-12-15T04:02:00.641Z,0.00
2022-12-15T04:03:00.606Z,0.00
2022-12-15T04:04:01.401Z,0.00
2022-12-15T04:05:00.397Z,0.00
2022-12-15T04:06:00.510Z,0.00
2022-12-15T04:07:00.411Z,0.00
2022-12-15T04:08:00.408Z,0.00
2022-12-15T04:09:00.395Z,0.00
2022-12-15T04:10:00.380Z,0.00
2022-12-15T04:11:00.393Z,0.00
2022-12-15T04:12:00.409Z,0.00
2022-12-15T04:13:00.339Z,0.00
2022-12-15T04:14:00.398Z,0.00
2022-12-15T04:15:00.364Z,0.00
2022-12-15T04:16:00.349Z,0.00
2022-12-15T04:17:00.478Z,0.00
2022-12-15T04:18:00.343Z,0.00
2022-12-15T04:19:00.332Z,0.00
2022-12-15T04:20:01.328Z,0.00
2022-12-15T04:21:01.078Z,0.00
2022-12-15T04:22:00.333Z,0.00
2022-12-15T04:23:00.445Z,0.00
2022-12-15T04:24:00.266Z,0.00
2022-12-15T04:25:00.329Z,0.00
2022-12-15T04:26:00.265Z,0.00
2022-12-15T04:27:00.281Z,0.00
2022-12-15T04:28:01.880Z,0.00
2022-12-15T04:29:01.266Z,0.00
2022-12-15T04:30:00.262Z,0.00
2022-12-15T04:31:00.283Z,0.00
2022-12-15T04:32:00.263Z,0.00
2022-12-15T04:33:00.307Z,0.00
2022-12-15T04:34:00.277Z,0.00
2022-12-15T04:35:00.240Z,0.00
2022-12-15T04:36:00.265Z,0.00
2022-12-15T04:37:00.227Z,0.00
2022-12-15T04:38:00.240Z,0.00
2022-12-15T04:39:00.245Z,0.00
2022-12-15T04:40:00.230Z,0.00
2022-12-15T04:41:00.193Z,0.00
2022-12-15T04:42:00.223Z,0.00
2022-12-15T04:43:00.196Z,0.00
2022-12-15T04:44:00.232Z,0.00
2022-12-15T04:45:00.226Z,0.00
2022-12-15T04:46:00.240Z,0.00
2022-12-15T04:47:01.179Z,0.00
2022-12-15T04:48:00.167Z,0.00
2022-12-15T04:49:00.213Z,0.00
2022-12-15T04:50:00.282Z,0.00
2022-12-15T04:51:00.173Z,0.00
2022-12-15T04:52:00.162Z,0.00
2022-12-15T04:53:01.163Z,0.00
2022-12-15T04:54:00.209Z,0.00
2022-12-15T04:55:00.156Z,0.00
2022-12-15T04:56:00.152Z,0.00
2022-12-15T04:57:00.144Z,0.00
2022-12-15T04:58:00.144Z,0.00
2022-12-15T04:59:00.108Z,0.00
2022-12-15T05:00:00.149Z,0.00
2022-12-15T05:01:00.311Z,0.00
2022-12-15T05:02:00.228Z,0.00
2022-12-15T05:03:00.111Z,0.00
2022-12-15T05:04:01.110Z,0.00
2022-12-15T05:05:00.145Z,0.00
2022-12-15T05:06:00.110Z,0.00
2022-12-15T05:07:00.179Z,0.00
2022-12-15T05:08:00.088Z,0.00
2022-12-15T05:09:00.067Z,0.00
2022-12-15T05:10:03.189Z,0.00
2022-12-15T05:11:01.091Z,0.00
2022-12-15T05:12:00.163Z,0.00
2022-12-15T05:13:00.041Z,0.00
2022-12-15T05:14:00.033Z,0.00
2022-12-15T05:15:00.089Z,0.00
2022-12-15T05:16:00.089Z,0.00
2022-12-15T05:17:00.077Z,0.00
2022-12-15T05:18:00.082Z,0.00
2022-12-15T05:19:00.005Z,0.00
2022-12-15T05:20:00.054Z,0.00
2022-12-15T05:21:00.009Z,0.00
2022-12-15T05:21:59.998Z,0.00
2022-12-15T05:23:00.007Z,0.00
2022-12-15T05:24:00.585Z,0.00
2022-12-15T05:25:00.010Z,0.00
2022-12-15T05:26:00.011Z,0.00
2022-12-15T05:26:59.983Z,0.00
2022-12-15T05:27:59.983Z,0.00
2022-12-15T05:29:00.176Z,0.00
2022-12-15T05:29:59.985Z,0.00
2022-12-15T05:31:00.036Z,0.00
2022-12-15T05:31:59.987Z,0.00
2022-12-15T05:32:59.928Z,0.00
2022-12-15T05:34:05.242Z,0.00
2022-12-15T05:35:01.971Z,0.00
2022-12-15T05:35:59.946Z,0.00
2022-12-15T05:36:59.886Z,0.00
2022-12-15T05:37:59.926Z,0.00
2022-12-15T05:39:00.017Z,0.00
2022-12-15T05:39:59.929Z,0.00
2022-12-15T05:40:59.912Z,0.00
2022-12-15T05:41:59.909Z,0.00
2022-12-15T05:42:59.882Z,0.00
2022-12-15T05:43:59.969Z,0.00
2022-12-15T05:44:59.892Z,0.00
2022-12-15T05:45:59.910Z,0.00
2022-12-15T05:46:59.887Z,0.00
2022-12-15T05:47:59.885Z,0.00
2022-12-15T05:48:59.844Z,0.00
2022-12-15T05:49:59.892Z,0.00
2022-12-15T05:50:59.881Z,0.00
2022-12-15T05:51:59.858Z,0.00
2022-12-15T05:52:59.876Z,0.00
2022-12-15T05:53:59.836Z,0.00
2022-12-15T05:54:59.826Z,0.00
2022-12-15T05:55:59.925Z,0.00
2022-12-15T05:56:59.845Z,0.00
2022-12-15T05:57:59.813Z,0.00
2022-12-15T05:58:59.787Z,0.00
2022-12-15T05:59:59.782Z,0.00
2022-12-15T06:00:59.804Z,0.00
2022-12-15T06:02:00.024Z,0.00
2022-12-15T06:02:59.918Z,0.00
2022-12-15T06:03:59.847Z,0.00
2022-12-15T06:04:59.828Z,0.00
2022-12-15T06:05:59.744Z,0.00
2022-12-15T06:06:59.826Z,0.00
2022-12-15T06:07:59.793Z,0.00
2022-12-15T06:08:59.788Z,0.00
2022-12-15T06:09:59.748Z,0.00
2022-12-15T06:10:59.766Z,0.00
2022-12-15T06:11:59.756Z,0.00
2022-12-15T06:12:59.750Z,0.00
2022-12-15T06:13:59.699Z,0.00
2022-12-15T06:14:59.760Z,0.00
2022-12-15T06:15:59.718Z,0.00
2022-12-15T06:16:59.795Z,0.00
2022-12-15T06:17:59.726Z,0.00
2022-12-15T06:18:59.714Z,0.00
2022-12-15T06:19:59.690Z,0.00
2022-12-15T06:20:59.679Z,0.00
2022-12-15T06:21:59.648Z,0.00
2022-12-15T06:22:59.683Z,0.00
2022-12-15T06:23:59.703Z,0.00
2022-12-15T06:24:59.697Z,0.00
2022-12-15T06:25:59.769Z,0.00
2022-12-15T06:26:59.650Z,0.00
2022-12-15T06:28:01.879Z,0.00
2022-12-15T06:28:59.670Z,0.00
2022-12-15T06:29:59.644Z,0.00
2022-12-15T06:30:59.736Z,0.00
2022-12-15T06:31:59.641Z,0.00
2022-12-15T06:32:59.642Z,0.00
2022-12-15T06:34:02.367Z,0.00
2022-12-15T06:35:00.654Z,0.00
2022-12-15T06:35:59.589Z,0.00
2022-12-15T06:36:59.576Z,0.00
2022-12-15T06:37:59.594Z,0.00
2022-12-15T06:38:59.578Z,0.00
2022-12-15T06:39:59.591Z,0.00
2022-12-15T06:40:59.581Z,0.00
2022-12-15T06:41:59.590Z,0.00
2022-12-15T06:42:59.519Z,0.00
2022-12-15T06:43:59.565Z,0.00
2022-12-15T06:44:59.568Z,0.00
2022-12-15T06:45:59.535Z,0.00
2022-12-15T06:46:59.637Z,0.00
2022-12-15T06:48:01.432Z,0.00
2022-12-15T06:48:59.527Z,0.00
2022-12-15T06:49:59.545Z,0.00
2022-12-15T06:50:59.562Z,0.00
2022-12-15T06:51:59.520Z,0.00
2022-12-15T06:52:59.503Z,0.00
2022-12-15T06:53:59.519Z,0.00
2022-12-15T06:54:59.635Z,0.00
2022-12-15T06:55:59.492Z,0.00
2022-12-15T06:56:59.494Z,0.00
2022-12-15T06:57:59.471Z,0.00
2022-12-15T06:58:59.470Z,0.00
2022-12-15T06:59:59.530Z,0.00
2022-12-15T07:00:59.482Z,0.00
2022-12-15T07:01:59.714Z,0.00
2022-12-15T07:02:59.638Z,0.00
2022-12-15T07:03:59.696Z,0.00
2022-12-15T07:04:59.454Z,0.00
2022-12-15T07:05:59.456Z,0.00
2022-12-15T07:06:59.447Z,0.00
2022-12-15T07:07:59.422Z,0.00
2022-12-15T07:08:59.424Z,0.00
2022-12-15T07:09:59.470Z,0.00
2022-12-15T07:10:59.424Z,0.00
2022-12-15T07:11:59.416Z,0.00
2022-12-15T07:12:59.395Z,0.00
2022-12-15T07:13:59.392Z,0.00
2022-12-15T07:14:59.413Z,0.00
2022-12-15T07:15:59.488Z,0.00
2022-12-15T07:16:59.389Z,0.00
2022-12-15T07:17:59.396Z,5.62
2022-12-15T07:18:59.441Z,5.62
2022-12-15T07:19:59.362Z,5.62
2022-12-15T07:20:59.368Z,5.62
2022-12-15T07:22:00.356Z,5.62
2022-12-15T07:22:59.344Z,5.62
2022-12-15T07:24:00.552Z,5.62
2022-12-15T07:24:59.715Z,5.62
2022-12-15T07:26:31.329Z,5.62
2022-12-15T07:26:59.344Z,5.62
2022-12-15T07:27:59.326Z,11.25
2022-12-15T07:28:59.317Z,11.25
2022-12-15T07:29:59.371Z,11.25
2022-12-15T07:30:59.330Z,11.25
2022-12-15T07:31:59.331Z,11.25
2022-12-15T07:32:59.304Z,11.25
2022-12-15T07:33:59.328Z,11.25
2022-12-15T07:34:59.274Z,11.25
2022-12-15T07:35:59.290Z,11.25
2022-12-15T07:36:59.271Z,11.25
2022-12-15T07:37:59.251Z,16.88
2022-12-15T07:38:59.280Z,16.88
2022-12-15T07:39:59.299Z,16.88
2022-12-15T07:40:59.296Z,16.88
2022-12-15T07:41:59.259Z,16.88
2022-12-15T07:42:59.225Z,16.88
2022-12-15T07:43:59.238Z,22.50
2022-12-15T07:44:59.239Z,16.88
2022-12-15T07:45:59.329Z,22.50
2022-12-15T07:46:59.292Z,22.50
2022-12-15T07:47:59.244Z,28.12
2022-12-15T07:48:59.280Z,33.75
2022-12-15T07:49:59.196Z,33.75
2022-12-15T07:51:07.404Z,33.75
2022-12-15T07:52:00.249Z,39.38
2022-12-15T07:52:59.164Z,39.38
2022-12-15T07:53:59.195Z,39.38
2022-12-15T07:54:59.202Z,39.38
2022-12-15T07:56:07.440Z,45.00
2022-12-15T07:57:01.193Z,39.38
2022-12-15T07:57:59.170Z,33.75
2022-12-15T07:58:59.135Z,28.12
2022-12-15T07:59:59.162Z,28.12
2022-12-15T08:00:59.229Z,28.12
2022-12-15T08:01:59.392Z,28.12
2022-12-15T08:02:59.281Z,28.12
2022-12-15T08:03:59.182Z,28.12
2022-12-15T08:04:59.163Z,33.75
2022-12-15T08:06:04.053Z,33.75
2022-12-15T08:07:00.135Z,33.75
2022-12-15T08:07:59.133Z,33.75
2022-12-15T08:08:59.134Z,33.75
2022-12-15T08:09:59.066Z,33.75
2022-12-15T08:10:59.095Z,33.75
2022-12-15T08:11:59.109Z,33.75
2022-12-15T08:12:59.120Z,33.75
2022-12-15T08:14:04.013Z,33.75
2022-12-15T08:15:01.075Z,33.75
2022-12-15T08:15:59.154Z,33.75
2022-12-15T08:16:59.153Z,33.75
2022-12-15T08:17:59.062Z,33.75
2022-12-15T08:18:59.041Z,28.12
2022-12-15T08:19:59.152Z,28.12
2022-12-15T08:20:59.050Z,28.12
2022-12-15T08:21:59.064Z,28.12
2022-12-15T08:22:59.097Z,33.75
2022-12-15T08:23:59.016Z,33.75
2022-12-15T08:24:58.995Z,33.75
2022-12-15T08:25:59.031Z,33.75
2022-12-15T08:26:59.014Z,33.75
2022-12-15T08:27:59.042Z,33.75
2022-12-15T08:29:17.373Z,33.75
2022-12-15T08:29:59.062Z,33.75
2022-12-15T08:30:58.996Z,39.38
2022-12-15T08:31:59.024Z,39.38
2022-12-15T08:32:58.977Z,33.75
2022-12-15T08:33:59.020Z,33.75
2022-12-15T08:34:58.978Z,33.75
2022-12-15T08:35:58.951Z,33.75
2022-12-15T08:36:58.987Z,33.75
2022-12-15T08:38:05.088Z,33.75
2022-12-15T08:39:00.111Z,33.75
2022-12-15T08:39:58.964Z,33.75
2022-12-15T08:40:58.955Z,33.75
2022-12-15T08:41:58.931Z,33.75
2022-12-15T08:42:58.893Z,33.75
2022-12-15T08:43:58.928Z,33.75
2022-12-15T08:44:58.941Z,33.75
2022-12-15T08:45:58.912Z,33.75
2022-12-15T08:46:58.907Z,33.75
2022-12-15T08:47:58.893Z,33.75
2022-12-15T08:48:58.900Z,33.75
2022-12-15T08:49:58.943Z,33.75
2022-12-15T08:50:58.868Z,33.75
2022-12-15T08:51:58.867Z,39.38
2022-12-15T08:53:29.043Z,39.38
2022-12-15T08:54:00.877Z,39.38
2022-12-15T08:54:58.878Z,39.38
2022-12-15T08:55:58.878Z,39.38
2022-12-15T08:56:58.876Z,45.00
2022-12-15T08:57:58.857Z,45.00
2022-12-15T08:58:58.819Z,50.62
2022-12-15T08:59:58.829Z,50.62
2022-12-15T09:00:59.023Z,56.25
2022-12-15T09:01:58.894Z,61.88
2022-12-15T09:02:58.801Z,67.50
2022-12-15T09:03:58.890Z,73.12
2022-12-15T09:04:58.798Z,78.75
2022-12-15T09:05:58.828Z,84.38
2022-12-15T09:06:58.908Z,168.75
2022-12-15T09:08:06.217Z,208.12
2022-12-15T09:09:00.806Z,343.12
2022-12-15T09:09:58.788Z,410.62
2022-12-15T09:10:58.802Z,388.12
2022-12-15T09:11:58.785Z,382.50
2022-12-15T09:12:58.844Z,393.75
2022-12-15T09:13:58.788Z,450.00
2022-12-15T09:14:58.733Z,405.00
2022-12-15T09:16:14.254Z,399.38
2022-12-15T09:17:00.972Z,388.12
2022-12-15T09:17:58.729Z,376.88
2022-12-15T09:18:58.753Z,399.38
2022-12-15T09:19:58.727Z,438.75
2022-12-15T09:20:58.746Z,427.50
2022-12-15T09:21:58.703Z,568.12
2022-12-15T09:22:58.738Z,635.62
2022-12-15T09:23:58.695Z,669.38
2022-12-15T09:24:58.711Z,810.00
2022-12-15T09:25:58.700Z,1237.50
2022-12-15T09:26:58.681Z,1428.75
2022-12-15T09:27:58.705Z,1473.75
2022-12-15T09:28:58.655Z,697.50
2022-12-15T09:29:58.679Z,455.62
2022-12-15T09:30:58.699Z,315.00
2022-12-15T09:31:58.630Z,303.75
2022-12-15T09:32:58.636Z,354.38
2022-12-15T09:33:58.686Z,348.75
2022-12-15T09:34:58.651Z,354.38
2022-12-15T09:35:58.664Z,421.88
2022-12-15T09:36:58.634Z,326.25
2022-12-15T09:37:58.619Z,455.62
2022-12-15T09:38:58.706Z,618.75
2022-12-15T09:39:58.609Z,871.88
2022-12-15T09:40:58.593Z,866.25
2022-12-15T09:41:58.592Z,1479.38
2022-12-15T09:43:25.682Z,1755.00
2022-12-15T09:44:00.627Z,1411.88
2022-12-15T09:44:58.561Z,1001.25
2022-12-15T09:45:59.189Z,1068.75
2022-12-15T09:46:58.570Z,1074.38
2022-12-15T09:47:58.561Z,821.25
2022-12-15T09:48:58.516Z,506.25
2022-12-15T09:49:58.668Z,461.25
2022-12-15T09:50:58.575Z,466.88
2022-12-15T09:51:58.541Z,472.50
2022-12-15T09:52:58.535Z,545.62
2022-12-15T09:53:59.033Z,669.38
2022-12-15T09:54:58.733Z,916.88
2022-12-15T09:55:58.531Z,1046.25
2022-12-15T09:56:58.521Z,995.62
2022-12-15T09:57:58.514Z,720.00
2022-12-15T09:58:58.497Z,871.88
2022-12-15T09:59:58.482Z,1147.50
2022-12-15T10:00:58.599Z,2413.12
2022-12-15T10:01:58.531Z,2615.62
2022-12-15T10:02:58.515Z,2401.88
2022-12-15T10:03:58.594Z,2390.62
2022-12-15T10:04:58.491Z,2435.62
2022-12-15T10:07:00.476Z,2306.25
2022-12-15T10:07:58.447Z,2334.38
2022-12-15T10:08:58.474Z,1918.12
2022-12-15T10:09:58.459Z,1906.88
2022-12-15T10:10:58.440Z,2126.25
2022-12-15T10:11:58.455Z,2255.62
2022-12-15T10:13:02.311Z,1901.25
2022-12-15T10:13:58.438Z,2171.25
2022-12-15T10:14:58.416Z,2418.75
2022-12-15T10:15:58.428Z,2497.50
2022-12-15T10:16:58.438Z,2542.50
2022-12-15T10:17:58.370Z,2587.50
2022-12-15T10:19:01.463Z,2480.62
2022-12-15T10:19:58.387Z,2418.75
2022-12-15T10:20:58.359Z,2424.38
2022-12-15T10:21:58.357Z,2368.12
2022-12-15T10:22:58.376Z,2480.62
2022-12-15T10:23:58.398Z,2441.25
2022-12-15T10:25:13.719Z,2666.25
2022-12-15T10:26:00.333Z,2666.25
2022-12-15T10:26:58.319Z,2615.62
2022-12-15T10:27:58.353Z,2615.62
2022-12-15T10:28:58.310Z,2610.00
2022-12-15T10:29:58.395Z,2424.38
2022-12-15T10:30:58.350Z,2413.12
2022-12-15T10:31:58.283Z,2385.00
2022-12-15T10:32:58.299Z,1957.50
2022-12-15T10:33:58.323Z,2148.75
2022-12-15T10:34:58.347Z,2165.62
2022-12-15T10:35:58.279Z,2199.38
2022-12-15T10:36:58.277Z,2317.50
2022-12-15T10:37:58.296Z,2182.50
2022-12-15T10:38:58.396Z,2064.38
2022-12-15T10:39:58.293Z,1918.12
2022-12-15T10:40:58.252Z,2047.50
2022-12-15T10:41:58.233Z,2154.38
2022-12-15T10:42:58.235Z,2160.00
2022-12-15T10:43:58.237Z,1653.75
2022-12-15T10:44:58.255Z,2205.00
2022-12-15T10:45:58.241Z,2210.62
2022-12-15T10:46:58.217Z,2176.88
2022-12-15T10:47:58.219Z,2182.50
2022-12-15T10:48:58.214Z,2379.38
2022-12-15T10:49:58.231Z,2165.62
2022-12-15T10:50:58.213Z,2086.88
2022-12-15T10:51:58.204Z,2289.38
2022-12-15T10:52:58.185Z,2356.88
2022-12-15T10:53:58.188Z,2441.25
2022-12-15T10:54:58.164Z,1951.88
2022-12-15T10:55:58.202Z,2514.38
2022-12-15T10:56:58.151Z,2475.00
2022-12-15T10:57:58.169Z,2413.12
2022-12-15T10:58:58.198Z,2053.12
2022-12-15T10:59:58.155Z,2514.38
2022-12-15T11:00:58.260Z,2356.88
2022-12-15T11:01:58.252Z,2446.88
2022-12-15T11:02:58.400Z,2323.12
2022-12-15T11:03:58.421Z,2598.75
2022-12-15T11:04:58.161Z,2581.88
2022-12-15T11:05:58.113Z,2626.88
2022-12-15T11:06:58.118Z,2626.88
2022-12-15T11:07:58.096Z,2610.00
2022-12-15T11:08:58.107Z,2469.38
2022-12-15T11:09:58.087Z,2486.25
2022-12-15T11:10:58.099Z,2576.25
2022-12-15T11:11:58.067Z,2508.75
2022-12-15T11:12:58.551Z,2165.62
2022-12-15T11:13:59.078Z,2137.50
2022-12-15T11:14:58.055Z,2013.75
2022-12-15T11:15:58.046Z,2092.50
2022-12-15T11:16:58.070Z,2154.38
2022-12-15T11:17:58.156Z,2306.25
2022-12-15T11:18:58.031Z,2435.62
2022-12-15T11:20:02.274Z,2238.75
2022-12-15T11:20:58.986Z,2238.75
2022-12-15T11:21:57.992Z,2250.00
2022-12-15T11:22:58.015Z,2188.12
2022-12-15T11:23:58.012Z,2008.12
2022-12-15T11:24:58.008Z,1687.50
2022-12-15T11:25:59.239Z,1845.00
2022-12-15T11:26:58.954Z,1901.25
2022-12-15T11:27:57.992Z,1546.88
2022-12-15T11:28:57.978Z,1378.12
2022-12-15T11:29:57.958Z,1468.12
2022-12-15T11:30:58.971Z,1462.50
2022-12-15T11:32:03.076Z,1108.12
2022-12-15T11:32:58.960Z,1006.88
2022-12-15T11:33:57.982Z,1068.75
2022-12-15T11:34:57.915Z,1327.50
2022-12-15T11:35:57.929Z,1473.75
2022-12-15T11:36:57.923Z,1395.00
2022-12-15T11:37:57.906Z,1260.00
2022-12-15T11:38:57.999Z,1170.00
2022-12-15T11:39:57.922Z,1175.62
2022-12-15T11:40:57.894Z,1451.25
2022-12-15T11:41:57.890Z,1445.62
2022-12-15T11:42:57.894Z,1479.38
2022-12-15T11:44:00.994Z,1490.62
2022-12-15T11:44:58.969Z,1485.00
2022-12-15T11:45:57.882Z,1490.62
2022-12-15T11:46:57.831Z,1513.12
2022-12-15T11:47:57.859Z,1535.62
2022-12-15T11:48:57.866Z,1569.38
2022-12-15T11:49:58.453Z,1721.25
2022-12-15T11:50:57.805Z,2081.25
2022-12-15T11:51:57.849Z,2441.25
2022-12-15T11:52:57.820Z,2345.62
2022-12-15T11:53:57.830Z,2070.00
2022-12-15T11:54:57.828Z,1867.50
2022-12-15T11:55:57.841Z,1974.38
2022-12-15T11:56:57.772Z,1968.75
2022-12-15T11:57:57.815Z,1698.75
2022-12-15T11:58:57.762Z,1636.88
2022-12-15T11:59:57.778Z,1693.12
2022-12-15T12:00:57.836Z,1676.25
2022-12-15T12:02:03.034Z,1614.38
2022-12-15T12:02:58.830Z,1580.62
2022-12-15T12:03:57.750Z,1552.50
2022-12-15T12:04:57.717Z,1524.38
2022-12-15T12:05:57.734Z,1518.75
2022-12-15T12:06:57.748Z,1479.38
2022-12-15T12:07:57.773Z,1462.50
2022-12-15T12:08:57.729Z,1395.00
2022-12-15T12:09:57.708Z,1411.88
2022-12-15T12:10:57.742Z,1445.62
2022-12-15T12:11:57.758Z,1468.12
2022-12-15T12:12:57.694Z,1507.50
2022-12-15T12:13:57.706Z,1456.88
2022-12-15T12:14:57.688Z,1456.88
2022-12-15T12:15:57.687Z,1490.62
2022-12-15T12:16:57.669Z,1513.12
2022-12-15T12:17:57.691Z,1603.12
2022-12-15T12:18:57.741Z,1552.50
2022-12-15T12:19:57.684Z,1530.00
2022-12-15T12:20:57.650Z,1828.12
2022-12-15T12:21:57.653Z,1918.12
2022-12-15T12:22:57.762Z,1659.38
2022-12-15T12:23:57.621Z,1687.50
2022-12-15T12:24:57.619Z,1912.50
2022-12-15T12:26:02.773Z,2002.50
2022-12-15T12:26:58.666Z,2081.25
2022-12-15T12:27:57.569Z,2227.50
2022-12-15T12:28:57.740Z,2418.75
2022-12-15T12:29:57.596Z,2716.88
2022-12-15T12:30:57.574Z,3105.00
2022-12-15T12:32:02.169Z,3611.25
2022-12-15T12:32:59.564Z,3144.38
2022-12-15T12:33:57.689Z,2835.00
2022-12-15T12:35:31.023Z,2362.50
2022-12-15T12:35:58.560Z,2058.75
2022-12-15T12:36:58.543Z,1738.12
2022-12-15T12:38:01.352Z,1423.12
2022-12-15T12:38:58.567Z,1119.38
2022-12-15T12:39:57.550Z,1057.50
2022-12-15T12:40:57.523Z,961.88
2022-12-15T12:41:57.497Z,855.00
2022-12-15T12:42:57.521Z,855.00
2022-12-15T12:43:57.548Z,804.38
2022-12-15T12:44:57.555Z,770.62
2022-12-15T12:45:57.486Z,759.38
2022-12-15T12:46:57.504Z,742.50
2022-12-15T12:47:57.510Z,720.00
2022-12-15T12:48:57.499Z,714.38
2022-12-15T12:49:57.521Z,691.88
2022-12-15T12:50:57.501Z,658.12
2022-12-15T12:51:57.454Z,658.12
2022-12-15T12:52:57.469Z,658.12
2022-12-15T12:53:57.451Z,450.00
2022-12-15T12:54:57.461Z,421.88